Time;durP1;ratioP1;P1;durP2;ratioP2;P2;SDS_P1;SDS_P2;PMS_P1;PMS_P2;Temp;Humidity;BMP_temperature;BMP_pressure;BME280_temperature;BME280_humidity;BME280_pressure;Samples;Min_cycle;Max_cycle;Signal;HPM_P1;HPM_P2
2021/05/20 00:01:47;;;;;;;9.10;4.80;;;;;;;15.29;57.41;99710.03;5034134;28;20178;-85
2021/05/20 00:04:13;;;;;;;8.18;4.63;;;;;;;15.27;57.41;99701.25;5016610;28;20128;-84
2021/05/20 00:06:40;;;;;;;7.82;4.10;;;;;;;15.31;57.47;99712.59;5000396;28;20088;-83
2021/05/20 00:09:06;;;;;;;8.50;4.53;;;;;;;15.30;57.41;99711.72;4982651;28;20079;-85
2021/05/20 00:11:32;;;;;;;9.35;4.72;;;;;;;15.30;57.23;99716.25;5052645;28;20492;-84
2021/05/20 00:13:59;;;;;;;11.48;4.75;;;;;;;15.27;57.52;99717.41;5020340;28;20047;-85
2021/05/20 00:16:25;;;;;;;8.57;4.40;;;;;;;15.30;57.23;99717.09;5053041;28;20041;-86
2021/05/20 00:18:50;;;;;;;20.20;5.38;;;;;;;15.35;57.27;99723.94;5053057;28;20086;-87
2021/05/20 00:21:16;;;;;;;8.57;4.07;;;;;;;15.34;57.05;99722.22;5053745;28;20060;-86
2021/05/20 00:23:42;;;;;;;8.73;4.40;;;;;;;15.36;57.22;99720.25;5052788;28;20143;-87
2021/05/20 00:26:12;;;;;;;6.70;4.03;;;;;;;15.35;57.40;99713.16;5053949;28;20048;-88
2021/05/20 00:28:39;;;;;;;12.68;4.57;;;;;;;15.37;57.47;99721.94;5004214;28;20048;-87
2021/05/20 00:31:05;;;;;;;10.05;4.20;;;;;;;15.42;57.34;99725.03;5019644;28;20163;-86
2021/05/20 00:33:31;;;;;;;7.03;4.47;;;;;;;15.46;57.46;99724.63;5052666;28;20075;-85
2021/05/20 00:36:01;;;;;;;13.48;4.95;;;;;;;15.46;57.38;99726.47;5052384;28;20411;-86
2021/05/20 00:38:28;;;;;;;16.80;5.65;;;;;;;15.47;57.34;99715.53;5019628;28;20386;-86
2021/05/20 00:40:59;;;;;;;11.50;4.70;;;;;;;15.51;57.45;99718.78;5052154;28;20063;-86
2021/05/20 00:43:25;;;;;;;7.63;4.38;;;;;;;15.55;57.29;99714.81;5036258;28;20045;-86
2021/05/20 00:45:51;;;;;;;10.30;4.30;;;;;;;15.60;57.45;99703.59;5050668;28;20044;-86
2021/05/20 00:48:17;;;;;;;5.47;4.38;;;;;;;15.61;57.15;99714.25;5055674;28;20101;-87
2021/05/20 00:50:43;;;;;;;7.60;4.18;;;;;;;15.61;57.24;99703.47;5072672;28;20101;-84
2021/05/20 00:53:11;;;;;;;9.52;4.25;;;;;;;15.64;57.29;99713.06;5073623;28;20410;-84
2021/05/20 00:55:37;;;;;;;6.30;4.03;;;;;;;15.73;57.03;99713.09;5055827;28;20045;-85
2021/05/20 00:58:04;;;;;;;7.35;4.70;;;;;;;15.79;57.14;99715.19;5071851;28;20044;-85
2021/05/20 01:00:30;;;;;;;13.55;4.28;;;;;;;15.85;56.93;99712.91;5038899;28;20072;-85
2021/05/20 01:02:56;;;;;;;8.63;4.38;;;;;;;15.89;57.03;99708.91;5038868;28;20127;-85
2021/05/20 01:05:22;;;;;;;11.13;5.18;;;;;;;15.92;56.97;99714.03;5055594;28;20041;-85
2021/05/20 01:07:48;;;;;;;7.15;4.15;;;;;;;15.99;56.95;99713.28;5071784;28;20121;-85
2021/05/20 01:10:14;;;;;;;7.25;4.20;;;;;;;15.95;56.60;99711.03;5022303;28;20093;-84
2021/05/20 01:12:40;;;;;;;10.25;4.55;;;;;;;16.03;56.70;99720.06;5055373;28;20044;-85
2021/05/20 01:15:23;;;;;;;7.30;4.28;;;;;;;16.02;56.81;99712.13;5055641;28;20087;-86
2021/05/20 01:17:51;;;;;;;8.50;4.07;;;;;;;16.15;56.69;99722.56;5056672;28;20055;-86
2021/05/20 01:20:19;;;;;;;11.93;4.55;;;;;;;16.20;56.58;99726.50;5055503;28;20044;-86
2021/05/20 01:22:45;;;;;;;6.95;4.43;;;;;;;16.18;56.80;99717.75;5073096;28;20048;-86
2021/05/20 01:25:11;;;;;;;9.93;3.75;;;;;;;16.24;56.48;99714.41;5055789;28;20050;-84
2021/05/20 01:27:38;;;;;;;15.73;4.22;;;;;;;16.34;56.41;99727.88;5072770;28;20537;-88
2021/05/20 01:30:05;;;;;;;11.05;5.03;;;;;;;16.38;56.41;99728.41;5054962;28;20052;-85
2021/05/20 01:32:31;;;;;;;9.65;4.15;;;;;;;16.39;56.33;99730.97;5071644;28;20123;-85
2021/05/20 01:34:58;;;;;;;6.50;3.70;;;;;;;16.43;55.84;99737.75;5071634;28;20064;-88
2021/05/20 01:37:24;;;;;;;4.65;3.47;;;;;;;16.51;55.85;99734.28;5071648;28;20040;-84
2021/05/20 01:39:50;;;;;;;7.68;3.75;;;;;;;16.62;55.84;99730.53;5071590;28;20396;-85
2021/05/20 01:42:16;;;;;;;8.68;4.07;;;;;;;16.73;56.01;99730.31;5055194;28;20418;-84
2021/05/20 01:44:42;;;;;;;8.98;3.53;;;;;;;16.79;55.38;99720.81;5055084;28;20476;-84
2021/05/20 01:47:08;;;;;;;7.35;3.90;;;;;;;16.88;55.20;99736.06;5045073;28;20109;-81
2021/05/20 01:49:33;;;;;;;12.95;3.53;;;;;;;16.96;55.04;99733.44;5060360;28;20139;-82
2021/05/20 01:51:59;;;;;;;11.07;3.47;;;;;;;17.10;54.95;99734.78;5073134;28;20491;-84
2021/05/20 01:54:25;;;;;;;5.93;3.55;;;;;;;17.14;54.39;99734.28;5072632;28;20072;-84
2021/05/20 01:56:51;;;;;;;10.40;3.67;;;;;;;17.10;54.60;99724.81;5038486;28;20123;-84
2021/05/20 01:59:17;;;;;;;8.75;3.85;;;;;;;17.27;54.36;99738.47;5072704;28;20340;-84
2021/05/20 02:01:43;;;;;;;6.88;4.13;;;;;;;17.32;54.22;99731.59;5054747;28;20391;-84
2021/05/20 02:04:09;;;;;;;9.88;4.75;;;;;;;17.43;54.07;99735.91;5038470;28;20052;-85
2021/05/20 02:06:35;;;;;;;7.40;3.72;;;;;;;17.51;53.95;99730.53;5054518;28;20142;-84
2021/05/20 02:09:01;;;;;;;8.15;3.50;;;;;;;17.58;53.68;99728.91;5054929;28;20075;-84
2021/05/20 02:11:27;;;;;;;10.32;3.83;;;;;;;17.64;53.47;99733.69;5055482;28;20053;-84
2021/05/20 02:13:53;;;;;;;7.10;3.88;;;;;;;17.65;53.32;99721.88;5073265;28;20045;-86
2021/05/20 02:16:19;;;;;;;8.70;3.70;;;;;;;17.52;53.58;99729.53;5072738;28;20098;-85
2021/05/20 02:18:45;;;;;;;6.13;3.00;;;;;;;17.41;53.30;99727.09;5072974;28;20054;-85
2021/05/20 02:21:11;;;;;;;7.55;3.00;;;;;;;17.59;53.37;99730.59;5038875;28;20483;-84
2021/05/20 02:23:37;;;;;;;9.88;4.13;;;;;;;17.65;53.36;99726.44;5073286;28;20079;-85
2021/05/20 02:26:03;;;;;;;7.45;3.65;;;;;;;17.44;53.65;99726.78;5025282;28;20040;-85
2021/05/20 02:28:29;;;;;;;6.18;3.40;;;;;;;17.64;53.54;99732.81;5058686;28;20125;-85
2021/05/20 02:30:55;;;;;;;8.15;3.60;;;;;;;17.85;52.76;99735.19;5075115;28;20139;-85
2021/05/20 02:33:21;;;;;;;7.53;3.15;;;;;;;17.99;52.71;99744.59;5058644;28;20040;-84
2021/05/20 02:35:47;;;;;;;5.32;3.10;;;;;;;18.10;52.31;99733.50;5075843;28;20055;-86
2021/05/20 02:38:12;;;;;;;9.07;3.30;;;;;;;18.23;51.81;99733.03;5074736;28;20478;-82
2021/05/20 02:40:38;;;;;;;7.10;2.83;;;;;;;18.23;51.77;99733.03;5075875;28;20032;-85
2021/05/20 02:43:04;;;;;;;11.10;2.97;;;;;;;18.33;51.74;99736.47;5087306;28;20430;-87
2021/05/20 02:45:30;;;;;;;15.82;3.15;;;;;;;18.36;51.27;99728.03;5060011;28;20056;-82
2021/05/20 02:47:56;;;;;;;12.07;2.60;;;;;;;18.41;51.27;99739.19;5083197;28;20059;-82
2021/05/20 02:50:24;;;;;;;9.05;3.60;;;;;;;18.42;51.25;99725.50;5059057;28;20047;-81
2021/05/20 02:52:50;;;;;;;9.27;3.30;;;;;;;18.55;51.15;99737.72;5058371;28;20040;-81
2021/05/20 02:55:19;;;;;;;6.07;2.97;;;;;;;18.55;50.92;99733.16;5025954;28;20064;-87
2021/05/20 02:57:48;;;;;;;10.25;2.97;;;;;;;18.60;50.40;99735.38;5057658;28;20079;-87
2021/05/20 03:00:15;;;;;;;7.70;2.88;;;;;;;18.59;50.36;99739.94;5058085;28;20475;-84
2021/05/20 03:02:41;;;;;;;8.35;3.00;;;;;;;18.80;50.27;99741.38;5057682;28;20036;-80
2021/05/20 03:05:08;;;;;;;7.45;2.70;;;;;;;18.90;50.25;99744.78;5075554;28;20078;-79
2021/05/20 03:07:34;;;;;;;19.58;3.47;;;;;;;18.81;50.24;99724.13;5054439;28;20356;-77
2021/05/20 03:10:03;;;;;;;11.60;2.75;;;;;;;18.88;50.23;99734.13;5020813;28;20090;-76
2021/05/20 03:12:29;;;;;;;9.98;2.47;;;;;;;18.92;50.28;99730.06;5004715;28;20135;-77
2021/05/20 03:14:55;;;;;;;15.77;3.20;;;;;;;18.97;50.17;99743.09;5004556;28;20175;-79
2021/05/20 03:17:21;;;;;;;17.08;2.92;;;;;;;18.96;50.42;99735.16;4988041;28;20068;-79
2021/05/20 03:19:47;;;;;;;14.05;3.60;;;;;;;19.09;49.82;99730.91;5004582;28;20499;-77
2021/05/20 03:22:13;;;;;;;5.47;2.63;;;;;;;19.16;49.92;99742.78;5055020;28;20052;-78
2021/05/20 03:24:39;;;;;;;13.57;3.50;;;;;;;19.25;49.65;99735.50;5004303;28;20138;-79
2021/05/20 03:27:05;;;;;;;5.38;2.47;;;;;;;19.26;49.75;99731.78;5037031;28;20052;-78
2021/05/20 03:29:30;;;;;;;8.73;2.40;;;;;;;19.35;49.35;99740.75;5054581;28;20048;-77
2021/05/20 03:31:56;;;;;;;11.88;2.80;;;;;;;19.49;49.57;99725.69;5020521;28;20045;-80
2021/05/20 03:34:22;;;;;;;9.80;2.60;;;;;;;19.56;49.37;99721.28;5004528;28;20048;-76
2021/05/20 03:36:48;;;;;;;8.82;3.33;;;;;;;19.61;49.48;99725.16;5036542;28;20400;-76
2021/05/20 03:39:14;;;;;;;8.27;3.20;;;;;;;19.70;49.48;99723.28;4987872;28;20070;-78
2021/05/20 03:41:40;;;;;;;6.05;2.92;;;;;;;19.69;49.13;99715.34;4968383;28;20408;-78
2021/05/20 03:44:07;;;;;;;7.50;2.55;;;;;;;19.74;49.34;99719.22;5003417;28;20076;-77
2021/05/20 03:46:33;;;;;;;10.50;2.70;;;;;;;19.86;49.18;99711.59;5016842;28;20497;-78
2021/05/20 03:48:59;;;;;;;15.25;3.13;;;;;;;20.08;48.88;99723.53;5000858;28;20079;-76
2021/05/20 03:51:24;;;;;;;10.23;2.97;;;;;;;20.14;48.77;99712.84;5016634;28;20084;-75
2021/05/20 03:53:50;;;;;;;14.10;2.45;;;;;;;20.23;48.63;99707.38;5034243;28;20053;-76
2021/05/20 03:56:16;;;;;;;6.18;2.42;;;;;;;20.35;47.90;99709.53;4984191;28;20045;-78
2021/05/20 03:58:42;;;;;;;9.68;2.20;;;;;;;20.46;47.88;99710.13;4967878;28;20124;-77
2021/05/20 04:01:09;;;;;;;5.88;2.08;;;;;;;20.56;47.41;99700.78;4999782;28;20064;-83
2021/05/20 04:03:35;;;;;;;7.00;2.47;;;;;;;20.63;47.77;99700.94;4968351;28;20404;-82
2021/05/20 04:06:04;;;;;;;9.52;2.30;;;;;;;20.52;47.54;99696.75;5016819;28;20068;-82
2021/05/20 04:08:30;;;;;;;6.32;2.78;;;;;;;20.56;47.44;99689.09;5017844;28;20045;-82
2021/05/20 04:11:09;;;;;;;8.57;3.22;;;;;;;20.69;47.34;99693.94;5008715;28;20475;-81
2021/05/20 04:13:36;;;;;;;13.43;2.45;;;;;;;20.79;47.05;99686.38;5036136;28;20496;-80
2021/05/20 04:16:03;;;;;;;7.22;2.30;;;;;;;20.94;46.66;99698.16;5053775;28;20040;-81
2021/05/20 04:18:29;;;;;;;6.85;2.10;;;;;;;21.06;46.57;99695.88;5036144;28;20041;-82
2021/05/20 04:20:55;;;;;;;6.20;2.47;;;;;;;21.18;46.56;99696.31;5053914;28;20083;-83
2021/05/20 04:23:21;;;;;;;10.10;2.53;;;;;;;21.34;45.99;99698.91;5016829;28;20733;-82
2021/05/20 04:25:47;;;;;;;7.30;2.50;;;;;;;21.43;45.94;99700.50;5035581;28;20049;-82
2021/05/20 04:28:14;;;;;;;11.13;2.10;;;;;;;21.49;45.36;99705.22;5053682;28;20638;-83
2021/05/20 04:30:40;;;;;;;9.98;2.10;;;;;;;21.46;45.36;99704.75;5035798;28;20049;-81
2021/05/20 04:33:06;;;;;;;7.72;1.92;;;;;;;21.49;45.32;99705.22;5037525;28;20044;-82
2021/05/20 04:35:33;;;;;;;10.95;2.45;;;;;;;21.65;45.19;99714.25;5059207;28;20091;-81
2021/05/20 04:37:59;;;;;;;8.45;1.65;;;;;;;21.72;43.73;99698.88;5006800;28;20047;-80
2021/05/20 04:40:25;;;;;;;13.98;2.03;;;;;;;21.88;44.14;99706.84;5053834;28;20099;-80
2021/05/20 04:42:51;;;;;;;6.57;2.20;;;;;;;21.77;43.35;99693.72;5019275;28;20044;-81
2021/05/20 04:45:18;;;;;;;8.05;1.70;;;;;;;21.87;43.32;99698.91;5036062;28;20080;-81
2021/05/20 04:47:44;;;;;;;9.52;1.70;;;;;;;22.15;43.33;99696.38;5051718;28;20049;-86
2021/05/20 04:50:11;;;;;;;5.22;1.73;;;;;;;22.47;43.21;99698.69;5035913;28;20045;-82
2021/05/20 04:52:39;;;;;;;14.00;2.38;;;;;;;22.51;42.90;99689.09;5035654;28;20499;-81
2021/05/20 04:55:05;;;;;;;27.83;2.28;;;;;;;22.33;43.42;99685.94;5002808;28;20043;-83
2021/05/20 04:57:31;;;;;;;4.28;1.98;;;;;;;22.41;43.20;99688.53;5019425;28;20103;-80
2021/05/20 04:59:57;;;;;;;7.60;1.80;;;;;;;22.72;42.60;99682.00;5018862;28;20084;-85
2021/05/20 05:02:23;;;;;;;8.00;2.00;;;;;;;22.87;42.41;99693.69;5051947;28;20076;-82
2021/05/20 05:04:49;;;;;;;6.63;1.80;;;;;;;22.99;41.99;99681.25;5019267;28;20135;-81
2021/05/20 05:07:15;;;;;;;11.73;1.85;;;;;;;23.02;41.31;99680.88;5018813;28;20068;-82
2021/05/20 05:09:41;;;;;;;10.15;2.03;;;;;;;23.15;40.79;99695.66;5015602;28;20132;-82
2021/05/20 05:12:07;;;;;;;6.75;1.67;;;;;;;23.13;40.54;99684.09;4999236;28;20510;-83
2021/05/20 05:14:33;;;;;;;12.77;2.45;;;;;;;23.17;40.94;99693.56;4999551;28;20068;-82
2021/05/20 05:16:59;;;;;;;12.80;2.20;;;;;;;23.30;40.80;99690.97;4999029;28;20045;-83
2021/05/20 05:19:25;;;;;;;15.70;2.08;;;;;;;23.47;41.00;99688.81;5015830;28;20116;-81
2021/05/20 05:21:51;;;;;;;7.88;1.63;;;;;;;23.54;40.13;99686.13;4998889;28;20076;-82
2021/05/20 05:24:17;;;;;;;4.15;1.95;;;;;;;23.59;40.45;99678.22;4998949;28;20045;-81
2021/05/20 05:26:43;;;;;;;12.70;1.90;;;;;;;23.60;40.14;99674.44;4999321;28;20046;-82
2021/05/20 05:29:09;;;;;;;7.13;1.50;;;;;;;23.69;39.49;99681.44;4998682;28;20051;-81
2021/05/20 05:31:36;;;;;;;12.80;1.63;;;;;;;23.67;39.73;99669.91;4983196;28;20128;-82
2021/05/20 05:34:03;;;;;;;6.38;1.40;;;;;;;23.73;39.67;99667.22;5015396;28;20087;-81
2021/05/20 05:36:29;;;;;;;13.73;2.40;;;;;;;23.82;40.09;99670.63;4998751;28;20075;-81
2021/05/20 05:38:56;;;;;;;6.82;1.63;;;;;;;23.98;39.62;99670.28;4999263;28;20076;-80
2021/05/20 05:41:22;;;;;;;6.35;1.70;;;;;;;24.11;39.65;99657.75;4982489;28;20127;-80
2021/05/20 05:43:47;;;;;;;10.98;1.63;;;;;;;23.99;38.74;99660.19;5015519;28;20053;-81
2021/05/20 05:46:13;;;;;;;8.95;1.75;;;;;;;23.80;39.14;99667.22;4998414;28;20119;-80
2021/05/20 05:48:39;;;;;;;5.30;1.70;;;;;;;23.81;39.27;99671.69;4998731;28;20041;-79
2021/05/20 05:51:10;;;;;;;7.95;2.03;;;;;;;23.78;39.36;99669.34;4982241;28;20041;-82
2021/05/20 05:53:36;;;;;;;7.32;1.60;;;;;;;23.69;39.56;99665.06;5015517;28;20056;-80
2021/05/20 05:56:03;;;;;;;5.32;1.90;;;;;;;23.79;39.56;99662.81;5015154;28;20121;-79
2021/05/20 05:58:29;;;;;;;8.82;1.60;;;;;;;23.88;39.67;99664.38;5015807;28;20041;-81
2021/05/20 06:00:55;;;;;;;12.57;2.33;;;;;;;23.97;40.02;99663.16;4970898;28;20038;-79
2021/05/20 06:03:21;;;;;;;10.43;1.70;;;;;;;24.25;39.17;99651.28;4986523;28;20511;-80
2021/05/20 06:05:48;;;;;;;9.85;2.03;;;;;;;24.22;39.38;99647.09;5036772;28;20045;-79
2021/05/20 06:08:14;;;;;;;19.77;2.25;;;;;;;24.54;39.32;99654.81;4983008;28;20111;-80
2021/05/20 06:10:40;;;;;;;11.02;2.67;;;;;;;24.82;39.15;99655.47;5021934;28;20513;-81
2021/05/20 06:13:06;;;;;;;24.98;2.40;;;;;;;25.06;38.52;99653.22;5038495;28;20102;-81
2021/05/20 06:15:32;;;;;;;40.47;3.42;;;;;;;25.23;38.04;99640.81;5005903;28;20483;-80
2021/05/20 06:17:58;;;;;;;16.17;2.60;;;;;;;25.36;37.78;99640.84;5005672;28;20113;-80
2021/05/20 06:20:24;;;;;;;20.00;2.13;;;;;;;25.55;38.14;99650.09;5022164;28;20559;-80
2021/05/20 06:22:50;;;;;;;7.68;2.10;;;;;;;25.57;37.33;99645.22;5038113;28;20510;-80
2021/05/20 06:25:16;;;;;;;19.10;2.00;;;;;;;25.49;36.92;99650.09;5038532;28;20139;-78
2021/05/20 06:27:42;;;;;;;29.73;2.40;;;;;;;25.43;36.31;99657.25;5038345;28;20147;-80
2021/05/20 06:30:08;;;;;;;10.93;1.70;;;;;;;25.35;36.90;99650.09;5039469;28;20497;-80
2021/05/20 06:32:36;;;;;;;3.72;1.70;;;;;;;25.28;37.01;99638.31;5022792;28;20071;-80
2021/05/20 06:35:03;;;;;;;5.78;1.67;;;;;;;25.28;36.93;99648.44;5022571;28;20044;-81
2021/05/20 06:37:30;;;;;;;10.80;1.90;;;;;;;25.29;36.89;99634.53;5055897;28;20063;-79
2021/05/20 06:39:56;;;;;;;8.48;1.92;;;;;;;25.49;36.89;99641.88;5045318;28;20064;-79
2021/05/20 06:42:22;;;;;;;7.68;2.10;;;;;;;25.71;36.81;99643.31;5014875;28;20496;-81
2021/05/20 06:44:48;;;;;;;9.90;1.60;;;;;;;25.90;35.99;99641.59;5057806;28;20040;-80
2021/05/20 06:47:14;;;;;;;4.72;1.63;;;;;;;25.92;35.50;99648.56;5056027;28;20041;-80
2021/05/20 06:49:40;;;;;;;12.43;1.80;;;;;;;25.82;35.95;99656.38;5021906;28;20165;-81
2021/05/20 06:52:06;;;;;;;11.18;2.28;;;;;;;26.02;36.48;99641.78;5038085;28;20496;-80
2021/05/20 06:54:32;;;;;;;4.20;2.08;;;;;;;26.07;36.07;99653.78;5021774;28;20087;-80
2021/05/20 06:57:02;;;;;;;13.68;2.03;;;;;;;26.13;35.95;99652.91;5038258;28;20044;-81
2021/05/20 07:02:13;;;;;;;8.23;1.83;;;;;;;26.47;35.37;99658.28;5054414;28;20056;-80
2021/05/20 07:04:40;;;;;;;10.95;1.75;;;;;;;26.43;35.86;99643.31;5038931;28;20488;-81
2021/05/20 07:07:06;;;;;;;8.68;2.08;;;;;;;26.69;35.55;99651.41;5038128;28;20048;-80
2021/05/20 07:09:33;;;;;;;2.30;1.42;;;;;;;26.60;35.40;99636.28;4988677;28;20060;-80
2021/05/20 07:12:00;;;;;;;18.88;2.67;;;;;;;26.74;35.72;99650.75;5020420;28;20045;-81
2021/05/20 07:14:26;;;;;;;10.82;2.35;;;;;;;26.88;35.42;99655.91;5037387;28;20044;-80
2021/05/20 07:16:52;;;;;;;7.28;2.15;;;;;;;26.93;34.72;99636.09;5020781;28;20128;-80
2021/05/20 07:19:18;;;;;;;4.05;1.55;;;;;;;26.99;35.00;99653.53;5004734;28;20064;-81
2021/05/20 07:21:45;;;;;;;1.90;1.70;;;;;;;26.74;35.36;99643.38;5004733;28;20048;-81
2021/05/20 07:24:11;;;;;;;7.07;1.70;;;;;;;26.98;35.08;99649.97;5037585;28;20439;-80
2021/05/20 07:26:37;;;;;;;5.72;1.75;;;;;;;27.08;34.86;99638.47;5053995;28;20041;-80
2021/05/20 07:29:07;;;;;;;5.55;1.77;;;;;;;27.09;35.38;99635.53;5021122;28;20045;-80
2021/05/20 07:31:37;;;;;;;12.63;2.20;;;;;;;27.28;34.58;99635.63;5037316;28;20378;-79
2021/05/20 07:34:03;;;;;;;8.82;1.63;;;;;;;27.39;34.56;99634.06;5037056;28;20095;-80
2021/05/20 07:36:29;;;;;;;5.55;1.90;;;;;;;27.61;34.45;99632.56;5036761;28;20041;-80
2021/05/20 07:38:55;;;;;;;13.20;1.58;;;;;;;27.71;34.12;99632.03;5020393;28;20500;-80
2021/05/20 07:41:21;;;;;;;5.85;1.63;;;;;;;27.61;34.41;99618.84;5036738;28;20044;-80
2021/05/20 07:43:48;;;;;;;17.00;2.25;;;;;;;27.64;34.66;99623.84;5020201;28;20464;-80
2021/05/20 07:46:13;;;;;;;10.75;2.10;;;;;;;27.91;34.40;99626.34;5020004;28;20041;-82
2021/05/20 07:48:39;;;;;;;4.22;1.90;;;;;;;27.95;33.79;99611.09;5037277;28;20083;-80
2021/05/20 07:51:06;;;;;;;11.90;2.08;;;;;;;27.95;33.91;99600.94;5053650;28;20084;-80
2021/05/20 07:53:33;;;;;;;11.05;2.10;;;;;;;28.14;34.16;99610.00;5036871;28;20499;-80
2021/05/20 07:55:59;;;;;;;5.43;1.63;;;;;;;28.39;33.23;99603.56;4988048;28;20492;-80
2021/05/20 07:58:25;;;;;;;12.32;1.67;;;;;;;28.60;32.48;99605.81;5020257;28;20041;-80
2021/05/20 08:00:51;;;;;;;6.13;2.75;;;;;;;28.54;32.48;99606.75;5052882;28;20041;-79
2021/05/20 08:03:35;;;;;;;6.68;2.08;;;;;;;28.35;32.97;99594.09;5052857;28;20033;-81
2021/05/20 08:06:11;;;;;;;9.32;1.90;;;;;;;28.43;33.14;99597.38;5053310;28;20076;-78
2021/05/20 08:08:58;;;;;;;3.97;1.73;;;;;;;28.48;32.96;99582.94;5037729;28;20061;-78
2021/05/20 08:11:24;;;;;;;15.23;2.10;;;;;;;28.53;32.51;99585.81;5022648;28;20507;-80
2021/05/20 08:13:50;;;;;;;9.15;2.33;;;;;;;28.37;32.40;99587.31;5053203;28;20044;-80
2021/05/20 08:16:16;;;;;;;7.80;1.98;;;;;;;28.46;32.81;99590.56;5036259;28;20496;-79
2021/05/20 08:18:42;;;;;;;5.82;2.10;;;;;;;28.50;32.74;99594.53;5003413;28;20115;-82
2021/05/20 08:21:08;;;;;;;10.40;2.05;;;;;;;28.40;33.03;99591.50;5053824;28;20098;-78
2021/05/20 08:23:35;;;;;;;7.97;1.90;;;;;;;28.40;33.34;99580.50;4987244;28;20040;-80
2021/05/20 08:26:01;;;;;;;9.85;2.28;;;;;;;28.59;33.32;99579.41;5035905;28;20036;-80
2021/05/20 08:28:27;;;;;;;5.28;1.90;;;;;;;28.93;32.95;99580.56;5019668;28;20048;-80
2021/05/20 08:30:54;;;;;;;7.75;1.83;;;;;;;29.04;32.41;99574.25;5035585;28;20076;-80
2021/05/20 08:33:21;;;;;;;10.50;2.05;;;;;;;29.09;32.75;99572.69;5035609;28;20040;-81
2021/05/20 08:35:47;;;;;;;14.52;1.80;;;;;;;29.29;32.47;99578.69;5003218;28;20052;-81
2021/05/20 08:38:14;;;;;;;14.27;1.90;;;;;;;29.52;32.22;99572.31;5035574;28;20059;-80
2021/05/20 08:40:41;;;;;;;6.70;1.70;;;;;;;29.94;31.80;99570.25;5052570;28;20048;-81
2021/05/20 08:43:07;;;;;;;6.53;2.08;;;;;;;30.20;30.80;99570.78;5019227;28;20071;-81
2021/05/20 08:45:33;;;;;;;9.90;1.85;;;;;;;30.19;31.55;99575.47;5035783;28;20048;-79
2021/05/20 08:48:00;;;;;;;5.35;1.80;;;;;;;30.20;31.55;99563.38;5052289;28;20052;-80
2021/05/20 08:50:28;;;;;;;10.13;2.30;;;;;;;30.21;31.42;99559.53;5019071;28;20044;-86
2021/05/20 08:52:54;;;;;;;9.45;1.55;;;;;;;30.03;31.77;99551.41;5036359;28;20079;-80
2021/05/20 08:55:24;;;;;;;5.43;1.80;;;;;;;30.00;31.72;99551.91;5053579;28;20072;-81
2021/05/20 08:57:50;;;;;;;6.90;2.00;;;;;;;30.31;32.03;99547.00;5052781;28;20045;-80
2021/05/20 09:00:18;;;;;;;9.43;1.80;;;;;;;30.70;31.17;99545.25;5035547;28;20041;-79
2021/05/20 09:02:44;;;;;;;11.82;2.20;;;;;;;30.78;31.02;99552.31;5052151;28;20048;-80
2021/05/20 09:05:17;;;;;;;5.45;1.80;;;;;;;30.76;30.58;99554.47;5035527;28;20415;-81
2021/05/20 09:07:48;;;;;;;4.22;1.73;;;;;;;30.44;30.64;99546.72;5051913;28;20048;-80
2021/05/20 09:10:30;;;;;;;2.58;1.70;;;;;;;30.65;30.80;99557.00;5036039;28;20049;-81
2021/05/20 09:12:59;;;;;;;4.88;1.63;;;;;;;30.58;30.98;99553.59;5020095;28;20041;-80
2021/05/20 09:15:30;;;;;;;6.95;1.88;;;;;;;30.48;31.01;99547.91;5051505;28;20045;-81
2021/05/20 09:18:17;;;;;;;8.15;1.60;;;;;;;30.34;31.23;99552.03;5035224;28;20408;-81
2021/05/20 09:20:44;;;;;;;12.02;2.08;;;;;;;30.22;31.37;99544.66;5019204;28;20055;-82
2021/05/20 09:23:15;;;;;;;11.85;2.45;;;;;;;30.38;31.30;99542.19;5051937;28;20053;-81
2021/05/20 09:25:42;;;;;;;11.45;2.00;;;;;;;30.05;32.01;99545.66;5018856;28;20048;-80
2021/05/20 09:28:09;;;;;;;8.10;1.83;;;;;;;30.05;31.44;99538.22;5051480;28;20053;-82
2021/05/20 09:30:42;;;;;;;8.98;1.98;;;;;;;30.03;31.54;99545.91;5034991;28;20045;-81
2021/05/20 09:33:15;;;;;;;6.32;1.80;;;;;;;30.20;31.51;99552.34;5035793;28;20076;-81
2021/05/20 09:35:45;;;;;;;12.25;2.25;;;;;;;30.53;31.26;99538.88;5051766;28;20041;-81
2021/05/20 09:38:20;;;;;;;14.35;2.05;;;;;;;30.67;30.62;99552.09;5002384;28;20044;-82
2021/05/20 09:40:50;;;;;;;8.23;1.75;;;;;;;30.90;30.63;99539.25;5035089;28;20075;-81
2021/05/20 09:43:21;;;;;;;13.57;1.90;;;;;;;31.04;29.97;99535.09;5051560;28;20381;-82
2021/05/20 09:45:50;;;;;;;14.90;2.00;;;;;;;31.24;29.71;99539.25;5051321;28;20144;-80
2021/05/20 09:48:16;;;;;;;5.40;1.63;;;;;;;31.21;29.95;99546.09;5034806;28;20068;-80
2021/05/20 09:50:44;;;;;;;18.52;2.38;;;;;;;31.52;29.72;99546.56;5051057;28;20047;-81
2021/05/20 09:53:11;;;;;;;9.55;1.90;;;;;;;32.07;29.25;99542.88;5034754;28;20040;-81
2021/05/20 09:55:43;;;;;;;7.40;1.80;;;;;;;32.66;29.07;99547.69;5034768;28;20041;-81
2021/05/20 09:58:10;;;;;;;8.88;1.63;;;;;;;33.19;28.05;99534.84;5001900;28;20048;-82
2021/05/20 10:00:37;;;;;;;6.93;1.70;;;;;;;33.63;27.80;99526.25;5034822;28;20045;-82
2021/05/20 10:03:11;;;;;;;10.97;1.80;;;;;;;33.89;27.65;99525.28;5051521;28;20523;-81
2021/05/20 10:05:37;;;;;;;12.32;1.88;;;;;;;33.88;27.20;99529.13;5018614;28;20097;-80
2021/05/20 10:08:12;;;;;;;8.30;1.55;;;;;;;33.67;27.26;99533.78;5034932;28;20060;-80
2021/05/20 10:10:40;;;;;;;7.43;1.42;;;;;;;33.83;26.79;99526.34;5034914;28;20060;-80
2021/05/20 10:13:08;;;;;;;10.48;1.88;;;;;;;33.82;27.22;99524.69;5034752;28;20549;-80
2021/05/20 10:15:34;;;;;;;8.43;2.03;;;;;;;33.65;27.39;99508.25;5002256;28;20041;-80
2021/05/20 10:18:10;;;;;;;8.85;1.75;;;;;;;33.71;27.36;99517.44;5034650;28;20079;-81
2021/05/20 10:20:36;;;;;;;18.95;1.98;;;;;;;34.16;26.99;99513.19;5003391;28;20049;-80
2021/05/20 10:23:06;;;;;;;8.10;2.00;;;;;;;34.36;26.62;99523.50;5051138;28;20049;-80
2021/05/20 10:25:32;;;;;;;11.45;1.90;;;;;;;34.10;26.58;99515.09;5052315;28;20044;-80
2021/05/20 10:27:58;;;;;;;6.53;1.55;;;;;;;33.74;26.35;99530.75;5051103;28;20508;-80
2021/05/20 10:30:24;;;;;;;6.43;1.70;;;;;;;33.81;26.76;99512.78;5018522;28;20065;-81
2021/05/20 10:32:54;;;;;;;5.80;1.60;;;;;;;33.68;26.34;99509.66;5053892;28;20049;-80
2021/05/20 10:35:49;;;;;;;7.47;2.13;;;;;;;33.43;27.11;99505.63;5041240;28;20048;-81
2021/05/20 10:38:35;;;;;;;11.60;1.52;;;;;;;33.86;26.57;99509.19;5039525;28;20044;-79
2021/05/20 10:41:27;;;;;;;15.25;1.90;;;;;;;34.11;26.71;99511.22;5060057;28;20056;-80
2021/05/20 10:44:08;;;;;;;11.80;1.92;;;;;;;34.41;26.09;99510.44;5019432;28;20037;-79
2021/05/20 10:47:02;;;;;;;5.35;2.05;;;;;;;34.30;26.08;99503.22;5053981;28;20048;-80
2021/05/20 10:49:48;;;;;;;8.63;2.00;;;;;;;34.26;26.26;99502.09;5054434;28;20044;-80
2021/05/20 10:52:37;;;;;;;9.77;1.65;;;;;;;33.99;26.43;99500.38;5039882;28;20131;-80
2021/05/20 10:55:05;;;;;;;6.43;1.65;;;;;;;33.54;27.01;99501.81;5056112;28;20095;-80
2021/05/20 10:57:46;;;;;;;10.47;1.97;;;;;;;33.06;27.69;99494.59;5039433;28;20041;-82
2021/05/20 11:00:41;;;;;;;9.48;1.75;;;;;;;32.87;27.71;99502.44;5055658;28;20052;-81
2021/05/20 11:03:08;;;;;;;7.47;1.60;;;;;;;32.51;28.01;99493.88;5032639;28;20059;-82
2021/05/20 11:05:40;;;;;;;15.75;2.00;;;;;;;32.31;28.02;99493.63;5038053;28;20564;-80
2021/05/20 11:08:09;;;;;;;11.30;1.90;;;;;;;32.24;27.88;99504.94;5037726;28;20091;-80
2021/05/20 11:10:39;;;;;;;11.43;1.85;;;;;;;32.10;27.87;99498.13;5021292;28;20056;-79
2021/05/20 11:13:05;;;;;;;6.68;2.05;;;;;;;31.71;28.18;99500.97;5054442;28;20037;-80
2021/05/20 11:15:31;;;;;;;13.15;1.90;;;;;;;31.35;28.64;99497.72;5005364;28;20395;-80
2021/05/20 11:18:33;;;;;;;11.50;2.40;;;;;;;31.23;29.13;99498.91;5070679;28;20110;-79
2021/05/20 11:20:59;;;;;;;11.52;2.83;;;;;;;31.19;29.29;99496.66;5037816;28;20040;-80
2021/05/20 11:23:26;;;;;;;10.98;2.35;;;;;;;31.29;28.91;99504.22;5021496;28;20135;-81
2021/05/20 11:26:05;;;;;;;11.27;2.17;;;;;;;31.17;28.92;99496.06;5037738;28;20048;-79
2021/05/20 11:28:38;;;;;;;15.80;2.47;;;;;;;31.14;28.90;99488.31;5054263;28;20055;-80
2021/05/20 11:31:04;;;;;;;8.75;2.20;;;;;;;31.39;28.79;99503.59;5020864;28;20045;-79
2021/05/20 11:33:36;;;;;;;11.07;1.90;;;;;;;31.39;28.93;99492.53;5054191;28;20163;-80
2021/05/20 11:38:29;;;;;;;8.82;1.83;;;;;;;31.50;28.52;99488.00;5054324;28;20060;-79